Time;durP1;ratioP1;P1;durP2;ratioP2;P2;SDS_P1;SDS_P2;PMS_P1;PMS_P2;Temp;Humidity;BMP_temperature;BMP_pressure;BME280_temperature;BME280_humidity;BME280_pressure;Samples;Min_cycle;Max_cycle;Signal;HPM_P1;HPM_P2
2021/03/15 00:00:59;;;;;;;19.05;9.27;;;23.30;30.90;;;;;;6223379;28;83087;-67
2021/03/15 00:03:59;;;;;;;18.45;9.57;;;23.30;30.50;;;;;;6246416;27;84117;-66
2021/03/15 00:07:00;;;;;;;18.70;9.68;;;23.30;31.00;;;;;;6235500;28;81182;-65
2021/03/15 00:10:01;;;;;;;19.38;9.35;;;23.20;31.10;;;;;;6248700;28;86342;-66
2021/03/15 00:13:01;;;;;;;17.48;9.63;;;23.30;30.70;;;;;;6227380;28;80769;-66
2021/03/15 00:16:02;;;;;;;21.55;9.75;;;23.30;30.80;;;;;;6240566;27;80861;-66
2021/03/15 00:19:02;;;;;;;22.95;10.13;;;23.20;30.70;;;;;;6228738;28;81365;-66
2021/03/15 00:22:03;;;;;;;20.90;10.32;;;23.30;30.70;;;;;;6234312;28;83187;-65
2021/03/15 00:25:03;;;;;;;16.73;9.10;;;23.20;30.00;;;;;;6229546;28;84639;-66
2021/03/15 00:28:04;;;;;;;20.60;9.93;;;23.20;29.90;;;;;;6243946;28;83631;-66
2021/03/15 00:31:04;;;;;;;19.67;10.27;;;23.30;30.00;;;;;;6215992;28;81052;-66
2021/03/15 00:34:05;;;;;;;20.23;9.88;;;23.20;30.20;;;;;;6236593;27;85172;-66
2021/03/15 00:37:05;;;;;;;20.55;10.02;;;23.20;30.70;;;;;;6239512;28;83060;-66
2021/03/15 00:40:06;;;;;;;19.70;10.02;;;23.20;30.90;;;;;;6189761;27;83609;-66
2021/03/15 00:43:06;;;;;;;18.70;9.68;;;23.20;30.90;;;;;;6235049;28;83513;-66
2021/03/15 00:46:07;;;;;;;21.33;10.05;;;23.20;30.90;;;;;;6236771;28;84007;-65
2021/03/15 00:49:08;;;;;;;18.60;9.35;;;23.20;30.70;;;;;;6237219;28;83434;-66
2021/03/15 00:52:09;;;;;;;19.83;9.93;;;23.20;30.80;;;;;;6213195;28;84230;-64
2021/03/15 00:55:09;;;;;;;18.98;9.57;;;23.20;31.20;;;;;;6238180;28;80839;-64
2021/03/15 00:58:10;;;;;;;22.88;10.75;;;23.20;31.10;;;;;;6240860;27;80420;-64
2021/03/15 01:01:11;;;;;;;22.48;11.68;;;23.20;31.10;;;;;;6242233;28;83252;-63
2021/03/15 01:04:20;;;;;;;18.55;10.43;;;23.20;30.90;;;;;;6222777;28;85080;-64
2021/03/15 01:07:35;;;;;;;22.38;10.30;;;23.20;30.90;;;;;;6224627;28;86142;-64
2021/03/15 01:10:35;;;;;;;20.52;10.63;;;23.20;31.00;;;;;;6230623;28;83240;-64
2021/03/15 01:13:36;;;;;;;22.95;11.07;;;23.20;30.90;;;;;;6226950;28;86831;-64
2021/03/15 01:16:36;;;;;;;20.77;10.77;;;23.20;30.80;;;;;;6235850;28;84101;-66
2021/03/15 01:19:39;;;;;;;20.67;10.90;;;23.20;31.00;;;;;;6220558;28;86331;-65
2021/03/15 01:22:39;;;;;;;25.77;11.52;;;23.10;30.40;;;;;;6233711;28;83594;-64
2021/03/15 01:25:40;;;;;;;24.45;11.85;;;23.10;30.50;;;;;;6233591;28;83023;-64
2021/03/15 01:28:40;;;;;;;22.80;11.75;;;23.10;30.20;;;;;;6232381;28;83372;-65
2021/03/15 01:31:41;;;;;;;26.20;12.43;;;23.10;30.30;;;;;;6236126;28;84113;-64
2021/03/15 01:34:41;;;;;;;24.25;11.82;;;23.20;30.50;;;;;;6245141;27;83192;-64
2021/03/15 01:37:42;;;;;;;23.55;11.52;;;23.20;30.90;;;;;;6245642;28;83745;-66
2021/03/15 01:40:42;;;;;;;20.77;11.38;;;23.20;30.70;;;;;;6242000;27;84106;-66
2021/03/15 01:43:43;;;;;;;25.42;12.85;;;23.20;30.80;;;;;;6232099;28;83607;-65
2021/03/15 01:46:43;;;;;;;26.33;13.00;;;23.20;30.30;;;;;;6236330;28;83403;-65
2021/03/15 01:49:44;;;;;;;26.88;13.27;;;23.20;31.20;;;;;;6242721;28;83461;-65
2021/03/15 01:52:44;;;;;;;23.73;12.13;;;23.10;30.30;;;;;;6216892;28;84164;-64
2021/03/15 01:55:45;;;;;;;27.75;13.05;;;23.10;30.50;;;;;;6241433;28;83507;-64
2021/03/15 01:58:46;;;;;;;26.70;12.95;;;23.20;30.80;;;;;;6210396;28;87684;-66
2021/03/15 02:01:46;;;;;;;26.83;12.98;;;23.10;30.20;;;;;;6234548;28;83550;-66
2021/03/15 02:04:47;;;;;;;32.20;14.27;;;23.10;30.30;;;;;;6246195;27;82885;-66
2021/03/15 02:07:47;;;;;;;28.88;13.23;;;23.10;30.20;;;;;;6212409;28;84929;-65
2021/03/15 02:10:48;;;;;;;27.60;12.95;;;23.10;30.60;;;;;;6233651;28;83446;-65
2021/03/15 02:13:48;;;;;;;30.45;14.15;;;23.10;30.20;;;;;;6240690;28;84620;-66
2021/03/15 02:16:49;;;;;;;24.08;12.85;;;23.10;30.60;;;;;;6216144;28;83933;-66
2021/03/15 02:19:49;;;;;;;30.45;13.85;;;23.10;30.20;;;;;;6210750;28;83369;-66
2021/03/15 02:22:50;;;;;;;26.75;13.25;;;23.10;29.90;;;;;;6227142;28;86869;-66
2021/03/15 02:25:50;;;;;;;26.02;14.02;;;23.10;29.80;;;;;;6214541;28;84343;-66
2021/03/15 02:28:51;;;;;;;25.75;12.88;;;23.10;30.10;;;;;;6233765;28;83109;-66
2021/03/15 02:31:52;;;;;;;28.27;13.35;;;23.10;30.50;;;;;;6219059;28;84324;-67
2021/03/15 02:34:52;;;;;;;23.80;12.35;;;23.10;30.60;;;;;;6234570;27;83999;-66
2021/03/15 02:37:53;;;;;;;28.15;14.55;;;23.10;30.20;;;;;;6240380;28;83150;-65
2021/03/15 02:40:53;;;;;;;28.98;14.35;;;23.10;30.40;;;;;;6238730;28;83017;-65
2021/03/15 02:43:54;;;;;;;26.58;13.63;;;23.10;30.40;;;;;;6243500;28;84347;-64
2021/03/15 02:46:54;;;;;;;29.77;13.82;;;23.10;31.70;;;;;;6212884;28;82935;-64
2021/03/15 02:49:55;;;;;;;27.27;14.00;;;23.10;30.50;;;;;;6234676;28;84305;-64
2021/03/15 02:52:55;;;;;;;29.00;14.95;;;23.10;30.90;;;;;;6236063;28;84138;-64
2021/03/15 02:55:56;;;;;;;29.17;14.25;;;23.10;30.70;;;;;;6244866;28;83489;-65
2021/03/15 02:58:56;;;;;;;25.25;13.32;;;23.10;30.70;;;;;;6217581;28;85607;-65
2021/03/15 03:01:57;;;;;;;26.40;13.73;;;23.10;31.00;;;;;;6232555;28;83663;-65
2021/03/15 03:04:57;;;;;;;27.88;14.13;;;23.00;30.70;;;;;;6236840;28;83490;-65
2021/03/15 03:07:58;;;;;;;25.48;13.73;;;23.00;30.70;;;;;;6236569;27;84244;-65
2021/03/15 03:10:58;;;;;;;28.38;14.98;;;23.00;30.70;;;;;;6225762;28;85592;-65
2021/03/15 03:13:59;;;;;;;31.30;14.38;;;23.00;30.10;;;;;;6232727;28;84194;-65
2021/03/15 03:17:00;;;;;;;35.58;14.52;;;23.00;30.10;;;;;;6237361;28;83192;-64
2021/03/15 03:20:00;;;;;;;28.05;13.85;;;23.10;30.00;;;;;;6237341;28;83153;-65
2021/03/15 03:23:01;;;;;;;32.50;15.38;;;23.00;30.50;;;;;;6246853;28;85473;-65
2021/03/15 03:26:01;;;;;;;29.13;14.57;;;23.00;30.60;;;;;;6244698;28;85118;-65
2021/03/15 03:29:02;;;;;;;28.42;14.40;;;23.00;30.10;;;;;;6212506;28;84364;-65
2021/03/15 03:32:02;;;;;;;29.20;15.02;;;23.00;30.60;;;;;;6214809;28;84080;-65
2021/03/15 03:35:03;;;;;;;29.02;13.88;;;23.00;30.60;;;;;;6237856;27;84036;-65
2021/03/15 03:38:03;;;;;;;29.23;14.38;;;23.00;30.40;;;;;;6243184;28;83057;-65
2021/03/15 03:41:04;;;;;;;27.15;14.05;;;23.00;30.30;;;;;;6243717;28;83971;-65
2021/03/15 03:44:04;;;;;;;27.02;14.38;;;23.00;29.90;;;;;;6236536;28;83835;-71
2021/03/15 03:47:05;;;;;;;29.90;15.48;;;23.00;30.40;;;;;;6232850;28;83249;-65
2021/03/15 03:50:05;;;;;;;27.92;13.88;;;23.00;30.50;;;;;;6231271;28;83717;-65
2021/03/15 03:53:06;;;;;;;31.92;15.02;;;23.00;30.30;;;;;;6236286;28;88435;-66
2021/03/15 03:56:06;;;;;;;27.52;14.18;;;23.00;30.00;;;;;;6243473;28;84499;-65
2021/03/15 03:59:07;;;;;;;31.52;15.50;;;23.00;30.10;;;;;;6226446;28;83505;-65
2021/03/15 04:02:07;;;;;;;30.23;14.93;;;23.00;30.40;;;;;;6247102;28;83582;-65
2021/03/15 04:05:09;;;;;;;30.15;15.10;;;23.00;30.50;;;;;;6239838;28;83423;-65
2021/03/15 04:08:09;;;;;;;29.05;15.38;;;23.00;30.00;;;;;;6235620;27;84119;-66
2021/03/15 04:11:10;;;;;;;31.30;14.98;;;23.00;30.30;;;;;;6249126;28;83194;-66
2021/03/15 04:14:10;;;;;;;27.88;15.00;;;23.00;30.10;;;;;;6234087;28;84283;-66
2021/03/15 04:17:11;;;;;;;27.20;13.63;;;23.00;30.40;;;;;;6239800;27;83587;-65
2021/03/15 04:20:11;;;;;;;28.75;14.85;;;23.00;30.10;;;;;;6246967;28;83016;-65
2021/03/15 04:23:12;;;;;;;33.80;15.77;;;23.00;30.00;;;;;;6238764;28;83364;-65
2021/03/15 04:26:12;;;;;;;30.00;14.45;;;23.10;29.70;;;;;;6235055;28;83587;-65
2021/03/15 04:29:13;;;;;;;32.92;14.98;;;23.00;29.60;;;;;;6245091;28;83611;-65
2021/03/15 04:32:13;;;;;;;27.85;14.25;;;23.00;29.50;;;;;;6246627;28;83409;-65
2021/03/15 04:35:14;;;;;;;32.95;16.13;;;23.10;29.30;;;;;;6215815;28;83599;-65
2021/03/15 04:38:14;;;;;;;30.58;15.68;;;23.10;29.20;;;;;;6246130;28;83170;-65
2021/03/15 04:41:15;;;;;;;31.35;16.20;;;23.10;29.10;;;;;;6235296;28;83255;-65
2021/03/15 04:44:15;;;;;;;31.23;16.00;;;23.10;29.10;;;;;;6230086;28;84001;-65
2021/03/15 04:47:17;;;;;;;30.52;14.27;;;23.10;29.00;;;;;;6240373;27;84445;-64
2021/03/15 04:50:18;;;;;;;28.75;14.75;;;23.20;29.00;;;;;;6240589;28;86238;-64
2021/03/15 04:53:18;;;;;;;32.25;15.57;;;23.20;28.90;;;;;;6240663;28;82978;-64
2021/03/15 04:56:19;;;;;;;30.73;14.60;;;23.20;28.90;;;;;;6231868;28;84165;-64
2021/03/15 04:59:19;;;;;;;28.73;15.32;;;23.20;28.90;;;;;;6232351;28;83330;-64
2021/03/15 05:02:20;;;;;;;29.05;15.02;;;23.20;28.90;;;;;;6232952;28;83771;-63
2021/03/15 05:05:20;;;;;;;32.20;14.52;;;23.30;29.00;;;;;;6240019;28;85113;-64
2021/03/15 05:08:21;;;;;;;32.15;15.68;;;23.30;28.90;;;;;;6242180;28;86921;-63
2021/03/15 05:11:21;;;;;;;29.00;15.02;;;23.30;28.90;;;;;;6236511;28;82754;-64
2021/03/15 05:14:22;;;;;;;29.83;14.65;;;23.30;28.90;;;;;;6242532;28;83086;-64
2021/03/15 05:17:22;;;;;;;30.75;15.20;;;23.30;28.90;;;;;;6215847;27;84842;-63
2021/03/15 05:20:23;;;;;;;30.20;14.60;;;23.30;28.80;;;;;;6243604;28;83203;-67
2021/03/15 05:23:24;;;;;;;26.67;14.10;;;23.40;28.90;;;;;;6245269;28;84686;-67
2021/03/15 05:26:24;;;;;;;30.88;15.48;;;23.40;29.30;;;;;;6246996;28;84818;-66
2021/03/15 05:29:25;;;;;;;28.92;15.05;;;23.40;29.30;;;;;;6233311;28;82976;-66
2021/03/15 05:32:25;;;;;;;33.22;15.57;;;23.40;29.40;;;;;;6247072;28;83443;-66
2021/03/15 05:35:26;;;;;;;30.10;15.20;;;23.40;30.20;;;;;;6241177;28;83226;-66
2021/03/15 05:38:26;;;;;;;32.30;15.38;;;23.40;30.10;;;;;;6250643;28;83985;-66
2021/03/15 05:41:27;;;;;;;32.47;15.82;;;23.40;30.30;;;;;;6235889;28;84539;-65
2021/03/15 05:44:27;;;;;;;31.00;15.20;;;23.40;30.70;;;;;;6247062;28;87580;-66
2021/03/15 05:47:28;;;;;;;36.42;15.63;;;23.40;30.60;;;;;;6248408;28;83282;-67
2021/03/15 05:50:29;;;;;;;31.58;14.98;;;23.50;30.90;;;;;;6241465;28;83432;-65
2021/03/15 05:53:29;;;;;;;27.90;14.35;;;23.40;31.00;;;;;;6244933;27;83120;-65
2021/03/15 05:56:30;;;;;;;30.10;14.88;;;23.50;31.80;;;;;;6237707;28;84098;-65
2021/03/15 05:59:30;;;;;;;30.30;15.32;;;23.50;32.00;;;;;;6240065;28;83221;-65
2021/03/15 06:02:31;;;;;;;32.00;14.43;;;23.50;32.60;;;;;;6236879;28;83317;-65
2021/03/15 06:05:31;;;;;;;31.73;15.98;;;23.50;33.20;;;;;;6238355;28;83197;-66
2021/03/15 06:08:32;;;;;;;32.92;14.75;;;23.50;33.80;;;;;;6232929;27;84608;-67
2021/03/15 06:11:32;;;;;;;34.92;15.88;;;23.60;33.90;;;;;;6238004;28;84610;-68
2021/03/15 06:14:33;;;;;;;30.02;14.80;;;23.50;33.90;;;;;;6235360;27;83213;-66
2021/03/15 06:17:33;;;;;;;30.60;15.18;;;23.50;33.70;;;;;;6236906;28;83419;-66
2021/03/15 06:20:34;;;;;;;30.75;16.25;;;23.50;33.90;;;;;;6238803;27;85316;-68
2021/03/15 06:23:34;;;;;;;31.30;15.90;;;23.50;34.10;;;;;;6244744;28;85052;-67
2021/03/15 06:26:35;;;;;;;35.65;15.82;;;23.50;34.10;;;;;;6245404;28;83700;-64
2021/03/15 06:29:36;;;;;;;29.70;14.90;;;23.50;34.30;;;;;;6208873;28;83808;-64
2021/03/15 06:32:36;;;;;;;34.13;16.92;;;23.50;33.50;;;;;;6196696;28;84006;-66
2021/03/15 06:35:37;;;;;;;37.35;17.00;;;23.50;33.00;;;;;;6234334;28;84010;-66
2021/03/15 06:38:37;;;;;;;36.33;16.92;;;23.40;33.40;;;;;;6227099;28;83943;-64
2021/03/15 06:41:38;;;;;;;30.17;15.68;;;23.40;34.20;;;;;;6227106;28;84176;-65
2021/03/15 06:44:38;;;;;;;38.40;16.25;;;23.50;34.10;;;;;;6246793;27;84019;-65
2021/03/15 06:47:39;;;;;;;32.92;16.10;;;23.50;33.20;;;;;;6241014;28;84390;-70
2021/03/15 06:50:39;;;;;;;29.15;14.13;;;23.50;33.00;;;;;;6240671;28;83838;-67
2021/03/15 06:53:40;;;;;;;30.48;14.52;;;23.60;32.60;;;;;;6239650;28;83436;-67
2021/03/15 06:56:41;;;;;;;36.35;15.70;;;23.60;32.50;;;;;;6242662;28;83883;-64
2021/03/15 06:59:41;;;;;;;29.25;13.63;;;23.50;32.30;;;;;;6240953;28;84068;-64
2021/03/15 07:02:42;;;;;;;31.08;15.55;;;23.50;32.00;;;;;;6243959;28;83505;-64
2021/03/15 07:05:42;;;;;;;29.77;14.90;;;23.50;32.10;;;;;;6215371;28;84398;-64
2021/03/15 07:08:43;;;;;;;31.35;15.45;;;23.50;32.10;;;;;;6213717;28;84162;-65
2021/03/15 07:11:44;;;;;;;31.42;15.75;;;23.50;32.30;;;;;;6217351;28;84794;-67
2021/03/15 07:14:44;;;;;;;30.05;15.43;;;23.50;33.00;;;;;;6216639;28;82881;-67
2021/03/15 07:17:45;;;;;;;27.90;15.23;;;23.50;33.40;;;;;;6211162;28;83435;-66
2021/03/15 07:20:45;;;;;;;32.72;15.23;;;23.40;33.40;;;;;;6216608;28;84109;-63
2021/03/15 07:23:46;;;;;;;30.50;15.82;;;23.40;33.20;;;;;;6205402;28;83689;-67
2021/03/15 07:26:47;;;;;;;34.60;16.10;;;23.40;33.20;;;;;;6216855;28;83004;-66
2021/03/15 07:29:47;;;;;;;27.15;14.48;;;23.30;32.30;;;;;;6215557;28;83692;-64
2021/03/15 07:32:48;;;;;;;30.77;15.25;;;23.40;33.10;;;;;;6222279;28;83660;-68
2021/03/15 07:35:48;;;;;;;29.92;15.88;;;23.40;32.50;;;;;;6212100;28;83038;-67
2021/03/15 07:38:49;;;;;;;29.08;15.77;;;23.40;32.40;;;;;;6210257;28;84020;-69
2021/03/15 07:41:49;;;;;;;36.10;16.70;;;23.40;32.40;;;;;;6210577;28;84163;-68
2021/03/15 07:44:50;;;;;;;31.90;16.25;;;23.30;31.20;;;;;;6221563;28;84255;-66
2021/03/15 07:47:51;;;;;;;32.13;15.63;;;23.40;31.40;;;;;;6211339;28;83348;-67
2021/03/15 07:50:51;;;;;;;26.35;15.23;;;23.30;31.50;;;;;;6212604;28;84123;-66
2021/03/15 07:53:52;;;;;;;27.70;12.98;;;23.30;31.00;;;;;;6219700;28;83543;-68
2021/03/15 07:56:52;;;;;;;24.98;13.07;;;23.30;31.10;;;;;;6219355;28;83270;-67
2021/03/15 07:59:53;;;;;;;22.20;10.73;;;23.40;31.00;;;;;;6220481;28;83977;-66
2021/03/15 08:02:55;;;;;;;22.27;10.85;;;23.60;30.90;;;;;;6219597;28;83230;-64
2021/03/15 08:05:55;;;;;;;20.75;11.80;;;23.60;31.50;;;;;;6234540;28;83059;-65
2021/03/15 08:08:56;;;;;;;28.42;12.43;;;23.60;30.60;;;;;;6234988;27;84233;-68
2021/03/15 08:11:57;;;;;;;24.77;12.77;;;23.60;30.40;;;;;;6241631;27;83436;-65
2021/03/15 08:14:57;;;;;;;24.48;12.48;;;23.50;29.80;;;;;;6247041;28;84128;-67
2021/03/15 08:17:58;;;;;;;25.45;13.10;;;23.50;29.90;;;;;;6238442;28;83136;-67
2021/03/15 08:20:58;;;;;;;25.83;14.13;;;23.50;30.30;;;;;;6236847;28;83528;-65
2021/03/15 08:23:59;;;;;;;26.30;12.50;;;23.40;31.60;;;;;;6239082;28;83277;-65
2021/03/15 08:27:00;;;;;;;27.50;14.07;;;23.40;31.40;;;;;;6245923;28;83245;-67
2021/03/15 08:30:01;;;;;;;29.80;12.73;;;23.40;31.50;;;;;;6241795;28;83649;-65
2021/03/15 08:33:02;;;;;;;25.42;12.98;;;23.40;30.80;;;;;;6246875;28;83444;-65
2021/03/15 08:36:02;;;;;;;23.33;12.52;;;23.40;30.40;;;;;;6244799;28;83939;-66
2021/03/15 08:39:03;;;;;;;28.58;13.30;;;23.30;30.00;;;;;;6243377;28;84479;-66
2021/03/15 08:42:03;;;;;;;27.55;13.82;;;23.30;29.80;;;;;;6222430;28;84498;-64
2021/03/15 08:45:04;;;;;;;27.75;14.70;;;23.30;32.60;;;;;;6242255;28;83527;-65
2021/03/15 08:48:04;;;;;;;28.25;14.90;;;23.30;34.60;;;;;;6239393;27;83586;-64
2021/03/15 08:51:05;;;;;;;28.70;13.63;;;23.20;32.90;;;;;;6230901;28;84773;-65
2021/03/15 08:54:05;;;;;;;30.98;13.70;;;23.10;31.60;;;;;;6233047;28;84008;-65
2021/03/15 08:57:06;;;;;;;25.33;12.88;;;23.10;31.00;;;;;;6221362;28;83676;-65
2021/03/15 09:00:06;;;;;;;27.85;14.27;;;23.10;30.70;;;;;;6233499;28;83179;-65
2021/03/15 09:03:07;;;;;;;23.83;12.57;;;23.10;30.20;;;;;;6240485;28;83912;-64
2021/03/15 09:06:08;;;;;;;23.67;13.63;;;23.10;29.90;;;;;;6242445;28;84036;-67
2021/03/15 09:09:08;;;;;;;26.45;13.35;;;23.00;29.70;;;;;;6228053;28;83387;-67
2021/03/15 09:12:09;;;;;;;24.67;12.45;;;23.00;29.60;;;;;;6242337;28;83650;-67
2021/03/15 09:15:09;;;;;;;29.40;14.00;;;22.90;29.50;;;;;;6211238;28;85951;-68
2021/03/15 09:18:10;;;;;;;32.95;12.80;;;22.80;29.00;;;;;;6240868;28;83315;-66
2021/03/15 09:21:11;;;;;;;25.08;11.10;;;22.80;29.50;;;;;;6245148;28;83330;-67
2021/03/15 09:24:11;;;;;;;30.20;11.20;;;22.80;29.30;;;;;;6230509;28;84415;-68
2021/03/15 09:27:12;;;;;;;24.77;10.25;;;22.80;29.30;;;;;;6242032;28;82912;-65
2021/03/15 09:30:12;;;;;;;19.52;9.73;;;22.80;29.00;;;;;;6235029;28;83416;-67
2021/03/15 09:33:13;;;;;;;26.02;9.20;;;22.80;29.30;;;;;;6242701;28;83033;-67
2021/03/15 09:36:14;;;;;;;47.80;13.85;;;22.80;29.60;;;;;;6244372;28;80512;-67
2021/03/15 09:39:14;;;;;;;30.20;9.40;;;22.80;30.50;;;;;;6245123;27;84112;-68
2021/03/15 09:42:15;;;;;;;21.40;8.63;;;22.80;30.00;;;;;;6241502;28;83159;-67
2021/03/15 09:45:15;;;;;;;31.35;9.88;;;22.80;30.20;;;;;;6247246;28;80913;-68
2021/03/15 09:48:16;;;;;;;16.83;8.75;;;22.80;30.30;;;;;;6222352;28;83553;-65
2021/03/15 09:51:18;;;;;;;27.17;8.35;;;22.80;30.00;;;;;;6228835;28;90791;-65
2021/03/15 09:54:39;;;;;;;18.73;7.70;;;22.80;29.90;;;;;;6238644;28;80653;-67
2021/03/15 09:57:41;;;;;;;14.07;7.57;;;22.90;29.90;;;;;;6226091;28;82783;-67
2021/03/15 10:00:55;;;;;;;15.75;7.18;;;22.90;29.50;;;;;;6221700;28;82409;-68
2021/03/15 10:04:24;;;;;;;16.92;7.47;;;22.90;29.30;;;;;;6243407;28;81057;-67
2021/03/15 10:07:45;;;;;;;14.57;6.78;;;23.00;29.30;;;;;;6222438;27;80887;-68
2021/03/15 10:11:14;;;;;;;13.48;6.50;;;23.10;29.30;;;;;;6190918;28;83164;-66
2021/03/15 10:14:35;;;;;;;14.18;6.20;;;23.10;29.50;;;;;;6201876;28;84643;-67
2021/03/15 10:18:08;;;;;;;13.00;5.95;;;23.10;29.60;;;;;;6230578;28;81662;-66
2021/03/15 10:21:16;;;;;;;10.10;6.03;;;23.10;29.60;;;;;;6222789;28;81670;-68
2021/03/15 10:24:17;;;;;;;13.98;6.20;;;23.10;29.60;;;;;;6211454;28;83517;-68
2021/03/15 10:27:18;;;;;;;14.20;6.07;;;23.10;29.40;;;;;;6221368;28;83395;-67
2021/03/15 10:30:19;;;;;;;14.70;6.97;;;23.10;29.60;;;;;;6228873;28;83517;-67
2021/03/15 10:33:20;;;;;;;11.57;5.72;;;23.00;29.70;;;;;;6222474;28;83521;-66
2021/03/15 10:36:22;;;;;;;10.52;5.95;;;23.10;30.00;;;;;;6224090;28;82843;-68
2021/03/15 10:39:39;;;;;;;11.48;6.28;;;23.10;29.90;;;;;;6217832;28;82700;-67
2021/03/15 10:42:40;;;;;;;13.43;5.88;;;22.90;29.30;;;;;;6225662;28;83730;-65
2021/03/15 10:45:41;;;;;;;16.48;6.38;;;22.90;29.20;;;;;;6192377;28;83595;-67
2021/03/15 10:48:45;;;;;;;14.65;5.45;;;22.90;29.00;;;;;;6224950;28;83476;-67
2021/03/15 10:51:45;;;;;;;11.32;5.90;;;22.80;28.80;;;;;;6201188;27;81922;-67
2021/03/15 10:55:00;;;;;;;15.63;6.80;;;22.80;29.00;;;;;;6223459;28;81852;-67
2021/03/15 10:58:01;;;;;;;10.90;6.00;;;22.70;28.70;;;;;;6219090;28;82938;-66
2021/03/15 11:01:02;;;;;;;14.15;6.70;;;22.70;28.90;;;;;;6229855;28;82132;-65
2021/03/15 11:04:08;;;;;;;15.55;6.82;;;22.70;28.60;;;;;;6228840;28;83297;-66
2021/03/15 11:07:09;;;;;;;12.52;6.38;;;22.60;28.60;;;;;;6225847;28;80895;-65
2021/03/15 11:10:20;;;;;;;13.63;5.60;;;22.60;28.70;;;;;;6229452;28;82242;-67
2021/03/15 11:13:38;;;;;;;10.82;5.18;;;22.60;29.00;;;;;;6222516;28;84478;-68
2021/03/15 11:16:42;;;;;;;11.23;4.80;;;22.80;29.40;;;;;;6218804;28;83480;-68
2021/03/15 11:19:43;;;;;;;12.82;5.75;;;22.80;29.60;;;;;;6227294;28;83307;-68
2021/03/15 11:22:43;;;;;;;11.32;5.55;;;22.80;30.40;;;;;;6246905;28;81333;-68
2021/03/15 11:25:44;;;;;;;11.18;4.93;;;22.90;29.90;;;;;;6244515;28;80573;-67
2021/03/15 11:28:47;;;;;;;10.52;4.78;;;22.90;30.10;;;;;;6221279;27;82890;-68
2021/03/15 11:31:53;;;;;;;12.13;5.70;;;22.90;30.70;;;;;;6222511;27;83280;-68
2021/03/15 11:34:57;;;;;;;9.27;5.18;;;23.00;30.80;;;;;;6243010;27;82113;-68
2021/03/15 11:38:04;;;;;;;7.65;4.63;;;23.10;30.90;;;;;;6228425;27;83320;-67
2021/03/15 11:41:15;;;;;;;7.45;3.85;;;23.10;31.10;;;;;;6232681;27;82621;-67
2021/03/15 11:44:16;;;;;;;15.40;4.65;;;23.20;30.80;;;;;;6228394;27;82802;-68
2021/03/15 11:47:16;;;;;;;10.38;4.50;;;23.20;30.50;;;;;;6246788;27;81325;-66
2021/03/15 11:50:34;;;;;;;9.50;5.55;;;23.20;30.40;;;;;;6213008;28;87232;-65
2021/03/15 11:53:41;;;;;;;10.25;5.35;;;23.20;30.00;;;;;;6223419;28;83547;-66
2021/03/15 11:56:42;;;;;;;11.80;5.97;;;23.20;30.20;;;;;;6229103;28;83081;-67
2021/03/15 11:59:43;;;;;;;9.35;4.85;;;23.30;30.20;;;;;;6228840;27;83446;-66
2021/03/15 12:02:52;;;;;;;10.20;5.05;;;23.30;30.20;;;;;;6225190;28;82906;-67
2021/03/15 12:06:13;;;;;;;10.00;4.78;;;23.30;30.50;;;;;;6242408;27;81424;-67
2021/03/15 12:09:36;;;;;;;8.85;4.85;;;23.30;30.40;;;;;;6230894;28;82313;-67
2021/03/15 12:12:37;;;;;;;10.10;4.88;;;23.30;30.00;;;;;;6224805;28;83152;-67
2021/03/15 12:15:42;;;;;;;10.90;5.15;;;23.30;29.90;;;;;;6229147;28;81808;-64
2021/03/15 12:18:47;;;;;;;12.02;4.88;;;23.30;29.70;;;;;;6232152;28;81058;-67
2021/03/15 12:21:48;;;;;;;8.00;4.70;;;23.30;29.60;;;;;;6220703;28;82925;-68
2021/03/15 12:25:04;;;;;;;9.40;4.70;;;23.30;29.40;;;;;;6222897;28;80870;-68
2021/03/15 12:28:13;;;;;;;9.10;5.00;;;23.30;29.20;;;;;;6248660;28;82918;-68
2021/03/15 12:31:14;;;;;;;9.70;4.45;;;23.30;29.10;;;;;;6243589;28;81442;-67
2021/03/15 12:34:15;;;;;;;7.63;3.72;;;23.30;29.00;;;;;;6228037;28;83084;-67
2021/03/15 12:37:17;;;;;;;8.38;4.60;;;23.30;29.10;;;;;;6229059;27;82348;-68
2021/03/15 12:40:20;;;;;;;9.23;5.03;;;23.40;29.20;;;;;;6227948;27;83613;-67
2021/03/15 12:43:22;;;;;;;9.00;4.60;;;23.30;29.20;;;;;;6228000;27;83367;-67
2021/03/15 12:46:23;;;;;;;8.38;4.72;;;23.30;29.20;;;;;;6227541;28;82260;-66
2021/03/15 12:49:25;;;;;;;10.95;4.07;;;23.40;29.20;;;;;;6204531;28;83431;-67
2021/03/15 12:52:29;;;;;;;7.95;4.22;;;23.40;29.20;;;;;;6247718;27;80792;-67
2021/03/15 12:55:39;;;;;;;10.20;4.28;;;23.40;29.20;;;;;;6230848;27;82734;-68
2021/03/15 12:58:41;;;;;;;6.93;3.90;;;23.40;29.10;;;;;;6249299;27;81274;-68
2021/03/15 13:01:55;;;;;;;10.48;3.90;;;23.40;29.10;;;;;;6228317;28;82616;-68
2021/03/15 13:04:56;;;;;;;10.38;5.05;;;23.40;29.10;;;;;;6229224;28;81686;-68
2021/03/15 13:07:56;;;;;;;8.50;3.92;;;23.40;29.10;;;;;;6228043;28;83220;-69
2021/03/15 13:11:17;;;;;;;8.32;4.18;;;23.40;29.10;;;;;;6246893;27;82520;-68
2021/03/15 13:14:32;;;;;;;12.03;4.30;;;23.40;29.00;;;;;;6226928;27;86452;-67
2021/03/15 13:18:00;;;;;;;6.18;3.45;;;23.40;29.00;;;;;;6226331;27;83555;-66
2021/03/15 13:21:09;;;;;;;8.18;4.18;;;23.40;28.90;;;;;;6231780;27;83238;-67
2021/03/15 13:24:11;;;;;;;6.65;4.18;;;23.40;28.90;;;;;;6230603;27;83402;-67
2021/03/15 13:27:15;;;;;;;6.65;4.32;;;23.40;28.90;;;;;;6226142;27;82106;-67
2021/03/15 13:30:31;;;;;;;6.45;3.65;;;23.40;28.80;;;;;;6226357;28;82819;-67
2021/03/15 13:33:33;;;;;;;6.97;3.97;;;23.40;28.80;;;;;;6228192;27;83036;-68
2021/03/15 13:36:42;;;;;;;8.65;3.90;;;23.40;28.80;;;;;;6247185;27;80939;-68
2021/03/15 13:39:55;;;;;;;7.85;4.28;;;23.40;28.70;;;;;;6228787;27;80856;-66
2021/03/15 13:42:56;;;;;;;7.97;4.35;;;23.50;28.70;;;;;;6236407;27;81278;-67
2021/03/15 13:46:11;;;;;;;10.82;4.43;;;23.50;28.70;;;;;;6233371;28;83286;-68
2021/03/15 13:49:26;;;;;;;7.32;4.47;;;23.40;28.70;;;;;;6250813;27;82914;-65
2021/03/15 13:52:35;;;;;;;9.02;3.50;;;23.40;28.60;;;;;;6243225;28;80751;-65
2021/03/15 13:55:36;;;;;;;9.65;4.00;;;23.40;28.60;;;;;;6204989;28;81737;-68
2021/03/15 13:58:36;;;;;;;9.40;3.83;;;23.50;28.50;;;;;;6243563;28;81356;-67
2021/03/15 14:01:37;;;;;;;9.60;3.60;;;23.50;28.40;;;;;;6248223;28;80581;-66
2021/03/15 14:04:49;;;;;;;7.28;4.07;;;23.50;28.20;;;;;;6246012;28;81506;-66
2021/03/15 14:07:55;;;;;;;9.90;4.63;;;23.50;28.30;;;;;;6249187;28;82262;-66
2021/03/15 14:10:56;;;;;;;5.95;3.97;;;23.40;28.50;;;;;;6240500;27;81533;-66
2021/03/15 14:14:02;;;;;;;7.03;4.30;;;23.40;28.50;;;;;;6225893;28;82322;-66
2021/03/15 14:17:02;;;;;;;8.63;4.35;;;23.40;28.60;;;;;;6231575;28;80678;-67
2021/03/15 14:20:03;;;;;;;8.70;4.13;;;23.30;28.50;;;;;;6231382;28;83046;-63
2021/03/15 14:23:06;;;;;;;7.32;4.20;;;23.30;28.10;;;;;;6221447;28;83664;-67
2021/03/15 14:26:07;;;;;;;8.63;4.30;;;23.30;28.40;;;;;;6234147;28;81622;-67
2021/03/15 14:29:21;;;;;;;8.30;3.67;;;23.30;28.70;;;;;;6227891;28;83657;-66
2021/03/15 14:32:38;;;;;;;13.80;4.32;;;23.30;28.50;;;;;;6223045;28;87604;-67
2021/03/15 14:35:51;;;;;;;7.63;4.40;;;23.20;28.40;;;;;;6241224;27;82931;-67
2021/03/15 14:39:01;;;;;;;10.63;4.45;;;23.20;28.30;;;;;;6225191;28;82142;-67
2021/03/15 14:42:07;;;;;;;6.15;4.05;;;23.20;28.30;;;;;;6224480;27;83147;-68
2021/03/15 14:45:08;;;;;;;8.50;4.05;;;23.30;28.30;;;;;;6226931;27;82667;-68
2021/03/15 14:48:17;;;;;;;7.97;3.92;;;23.30;28.30;;;;;;6204961;27;81559;-66
2021/03/15 14:51:24;;;;;;;9.25;4.22;;;23.20;28.50;;;;;;6230306;27;83020;-66
2021/03/15 14:54:50;;;;;;;7.63;3.92;;;23.20;28.80;;;;;;6222207;27;85913;-66
2021/03/15 14:57:53;;;;;;;11.52;4.38;;;23.20;29.00;;;;;;6226456;27;82440;-70
2021/03/15 15:00:56;;;;;;;7.97;4.00;;;23.20;28.40;;;;;;6229194;27;82722;-67
2021/03/15 15:04:00;;;;;;;8.43;4.32;;;23.20;28.80;;;;;;6227670;27;82741;-68
2021/03/15 15:07:01;;;;;;;6.50;4.30;;;23.20;28.50;;;;;;6227874;27;82925;-68
2021/03/15 15:10:15;;;;;;;8.13;4.38;;;23.10;28.30;;;;;;6245951;27;81797;-67
2021/03/15 15:13:20;;;;;;;10.90;4.75;;;23.20;28.60;;;;;;6226458;27;82679;-67
2021/03/15 15:16:47;;;;;;;;;;;23.20;28.90;;;;;;6236143;27;82911;-67
2021/03/15 15:19:48;;;;;;;6.95;4.13;;;23.10;28.70;;;;;;6230685;28;83279;-68
2021/03/15 15:22:58;;;;;;;9.23;3.90;;;23.10;28.40;;;;;;6247440;27;80949;-67
2021/03/15 15:25:58;;;;;;;5.70;4.03;;;23.20;28.50;;;;;;6229037;27;83062;-66
2021/03/15 15:28:59;;;;;;;7.20;4.10;;;23.20;28.50;;;;;;6241166;27;81418;-67
2021/03/15 15:31:59;;;;;;;8.88;3.72;;;23.20;28.50;;;;;;6245437;27;81908;-66
2021/03/15 15:35:00;;;;;;;8.10;4.00;;;23.10;28.40;;;;;;6244311;28;81434;-65